This is the latest recevied weather packets stored in our database for station/object KB1JDX. If no packets are shown the sender has not sent any weather packets the latest 10 day(s).
| Time | Temp. | Humidity | Pressure | Rain* | Wind** | Luminosity | Snow |
|---|---|---|---|---|---|---|---|
| 1788000738 | 14.44° C | 100% | 1021.5 hPa | 0 mm | 0 m/s | - | - |
| 1787999537 | 14.44° C | 100% | 1021.1 hPa | 0 mm | 0 m/s | - | - |
| 1787999473 | 14.44° C | 100% | 1021.1 hPa | 0 mm | 0 m/s | - | - |
| 1787995937 | 15° C | 100% | 1020.7 hPa | 0 mm | 0 m/s | - | - |
| 1787995872 | 15° C | 100% | 1020.7 hPa | 0 mm | 0 m/s | - | - |
| 1787993537 | 15.56° C | 100% | 1020.2 hPa | 0 mm | 0 m/s | - | - |
| 1787992273 | 15.56° C | 100% | 1020.1 hPa | 0 mm | 0 m/s | - | - |
| 1787991137 | 15.56° C | 100% | 1020.1 hPa | 0 mm | 0 m/s | - | - |
| 1787988673 | 16.11° C | 100% | 1019.4 hPa | 0 mm | 0 m/s | - | - |
| 1787987538 | 16.11° C | 100% | 1019.4 hPa | 0 mm | 0 m/s | - | - |
| 1787985139 | 16.67° C | 100% | 1019 hPa | 0 mm | 0 m/s | - | - |
| 1787985073 | 16.67° C | 100% | 1019 hPa | 0 mm | 0 m/s | - | - |
| 1787983937 | 17.22° C | 100% | 1018.8 hPa | 0 mm | 0 m/s | - | - |
| 1787982737 | 17.78° C | 100% | 1018.5 hPa | 0 mm | 0 m/s | - | - |
| 1787981537 | 17.78° C | 100% | 1018.3 hPa | 0 mm | 0 m/s | - | - |
| 1787981473 | 17.78° C | 100% | 1018.3 hPa | 0 mm | 0 m/s | - | - |
| 1787980337 | 18.33° C | 100% | 1018.3 hPa | 0 mm | 0 m/s | - | - |
| 1787977937 | 18.89° C | 100% | 1017.8 hPa | 0 mm | 0 m/s | - | - |
| 1787977873 | 18.89° C | 100% | 1017.9 hPa | 0 mm | 0 m/s | - | - |
| 1787976737 | 18.89° C | 100% | 1017.6 hPa | 0 mm | 0 m/s | - | - |
| 1787974273 | 19.44° C | 100% | 1017 hPa | 0 mm | 0 m/s | - | - |
| 1787971937 | 20° C | 100% | 1016.5 hPa | 0 mm | 0 m/s | - | - |
| 1787970673 | 20.56° C | 100% | 1016.5 hPa | 0 mm | 0 m/s | - | - |
| 1787967137 | 21.11° C | 100% | 1016 hPa | 0 mm | 0 m/s | - | - |
| 1787967073 | 21.11° C | 100% | 1016 hPa | 0 mm | 0 m/s | - | - |
* Rain latest hour (hover to see other rain measurements)
** Current wind speed in m/s (hover to see current wind gust speed)